sensor_id;sensor_type;location;lat;lon;timestamp;pressure;altitude;pressure_sealevel;temperature;humidity
29935;BME280;19905;53.370;-6.314;2023-05-19T00:01:14;102510.03;;;13.60;100.00
29935;BME280;19905;53.370;-6.314;2023-05-19T00:03:50;102526.91;;;13.59;100.00
29935;BME280;19905;53.370;-6.314;2023-05-19T00:06:22;102521.03;;;13.54;100.00
29935;BME280;19905;53.370;-6.314;2023-05-19T00:08:56;102527.31;;;13.53;100.00
29935;BME280;19905;53.370;-6.314;2023-05-19T00:11:27;102533.09;;;13.60;100.00
29935;BME280;19905;53.370;-6.314;2023-05-19T00:13:59;102540.78;;;13.64;100.00
29935;BME280;19905;53.370;-6.314;2023-05-19T00:16:29;102530.16;;;13.64;100.00
29935;BME280;19905;53.370;-6.314;2023-05-19T00:19:00;102530.34;;;13.61;100.00
29935;BME280;19905;53.370;-6.314;2023-05-19T00:21:30;102535.16;;;13.55;100.00
29935;BME280;19905;53.370;-6.314;2023-05-19T00:23:58;102542.19;;;13.56;100.00
29935;BME280;19905;53.370;-6.314;2023-05-19T00:26:28;102538.59;;;13.57;100.00
29935;BME280;19905;53.370;-6.314;2023-05-19T00:28:57;102532.91;;;13.63;100.00
29935;BME280;19905;53.370;-6.314;2023-05-19T00:31:25;102534.63;;;13.64;100.00
29935;BME280;19905;53.370;-6.314;2023-05-19T00:33:54;102546.91;;;13.51;100.00
29935;BME280;19905;53.370;-6.314;2023-05-19T00:36:25;102566.03;;;13.41;100.00
29935;BME280;19905;53.370;-6.314;2023-05-19T00:38:53;102561.84;;;13.37;100.00
29935;BME280;19905;53.370;-6.314;2023-05-19T00:41:22;102574.28;;;13.37;100.00
29935;BME280;19905;53.370;-6.314;2023-05-19T00:43:54;102581.66;;;13.32;100.00
29935;BME280;19905;53.370;-6.314;2023-05-19T00:46:22;102573.94;;;13.27;100.00
29935;BME280;19905;53.370;-6.314;2023-05-19T00:48:51;102582.00;;;13.26;100.00
29935;BME280;19905;53.370;-6.314;2023-05-19T00:51:20;102585.63;;;13.25;100.00
29935;BME280;19905;53.370;-6.314;2023-05-19T00:53:49;102595.19;;;13.27;100.00
29935;BME280;19905;53.370;-6.314;2023-05-19T00:56:19;102591.78;;;13.25;100.00
29935;BME280;19905;53.370;-6.314;2023-05-19T00:58:50;102590.66;;;13.29;100.00
29935;BME280;19905;53.370;-6.314;2023-05-19T01:01:20;102606.38;;;13.32;100.00
29935;BME280;19905;53.370;-6.314;2023-05-19T01:03:49;102609.56;;;13.39;100.00
29935;BME280;19905;53.370;-6.314;2023-05-19T01:06:18;102607.06;;;13.36;100.00
29935;BME280;19905;53.370;-6.314;2023-05-19T01:08:47;102608.66;;;13.24;100.00
29935;BME280;19905;53.370;-6.314;2023-05-19T01:11:15;102599.28;;;13.17;100.00
29935;BME280;19905;53.370;-6.314;2023-05-19T01:13:44;102598.53;;;13.15;100.00
29935;BME280;19905;53.370;-6.314;2023-05-19T01:16:20;102590.56;;;13.15;100.00
29935;BME280;19905;53.370;-6.314;2023-05-19T01:18:55;102575.94;;;13.08;100.00
29935;BME280;19905;53.370;-6.314;2023-05-19T01:21:57;102558.31;;;13.07;100.00
29935;BME280;19905;53.370;-6.314;2023-05-19T01:28:14;102548.44;;;13.09;100.00
29935;BME280;19905;53.370;-6.314;2023-05-19T01:30:52;102535.38;;;13.06;100.00
29935;BME280;19905;53.370;-6.314;2023-05-19T01:33:23;102521.75;;;12.96;100.00
29935;BME280;19905;53.370;-6.314;2023-05-19T01:35:53;102511.50;;;13.06;100.00
29935;BME280;19905;53.370;-6.314;2023-05-19T01:38:24;102496.97;;;12.97;100.00
29935;BME280;19905;53.370;-6.314;2023-05-19T01:40:55;102491.84;;;12.94;100.00
29935;BME280;19905;53.370;-6.314;2023-05-19T01:43:28;102496.50;;;13.05;100.00
29935;BME280;19905;53.370;-6.314;2023-05-19T01:45:59;102486.56;;;13.08;100.00
29935;BME280;19905;53.370;-6.314;2023-05-19T01:48:29;102488.75;;;13.02;100.00
29935;BME280;19905;53.370;-6.314;2023-05-19T01:50:58;102485.69;;;12.93;100.00
29935;BME280;19905;53.370;-6.314;2023-05-19T01:53:27;102491.25;;;12.89;100.00
29935;BME280;19905;53.370;-6.314;2023-05-19T01:55:56;102493.59;;;12.79;100.00
29935;BME280;19905;53.370;-6.314;2023-05-19T01:58:31;102498.19;;;12.76;100.00
29935;BME280;19905;53.370;-6.314;2023-05-19T02:01:18;102507.44;;;12.84;100.00
29935;BME280;19905;53.370;-6.314;2023-05-19T02:04:00;102509.56;;;12.78;100.00
29935;BME280;19905;53.370;-6.314;2023-05-19T02:06:36;102505.38;;;12.73;100.00
29935;BME280;19905;53.370;-6.314;2023-05-19T02:09:12;102507.38;;;12.70;100.00
29935;BME280;19905;53.370;-6.314;2023-05-19T02:11:46;102501.09;;;12.71;100.00
29935;BME280;19905;53.370;-6.314;2023-05-19T02:14:23;102518.13;;;12.67;100.00
29935;BME280;19905;53.370;-6.314;2023-05-19T02:16:56;102510.34;;;12.64;100.00
29935;BME280;19905;53.370;-6.314;2023-05-19T02:19:30;102507.19;;;12.57;100.00
29935;BME280;19905;53.370;-6.314;2023-05-19T02:22:00;102518.81;;;12.55;100.00
29935;BME280;19905;53.370;-6.314;2023-05-19T02:24:29;102522.50;;;12.52;100.00
29935;BME280;19905;53.370;-6.314;2023-05-19T02:26:58;102518.66;;;12.42;100.00
29935;BME280;19905;53.370;-6.314;2023-05-19T02:29:26;102523.16;;;12.40;100.00
29935;BME280;19905;53.370;-6.314;2023-05-19T02:31:57;102520.09;;;12.32;100.00
29935;BME280;19905;53.370;-6.314;2023-05-19T02:34:26;102529.06;;;12.29;100.00
29935;BME280;19905;53.370;-6.314;2023-05-19T02:36:54;102526.41;;;12.29;100.00
29935;BME280;19905;53.370;-6.314;2023-05-19T02:39:23;102527.69;;;12.22;100.00
29935;BME280;19905;53.370;-6.314;2023-05-19T02:41:52;102526.47;;;12.12;100.00
29935;BME280;19905;53.370;-6.314;2023-05-19T02:44:21;102525.78;;;12.08;100.00
29935;BME280;19905;53.370;-6.314;2023-05-19T02:46:49;102525.41;;;11.99;100.00
29935;BME280;19905;53.370;-6.314;2023-05-19T02:49:20;102530.63;;;12.00;100.00
29935;BME280;19905;53.370;-6.314;2023-05-19T02:51:48;102530.25;;;11.90;100.00
29935;BME280;19905;53.370;-6.314;2023-05-19T02:54:17;102537.19;;;11.76;100.00
29935;BME280;19905;53.370;-6.314;2023-05-19T02:56:45;102539.22;;;11.70;100.00
29935;BME280;19905;53.370;-6.314;2023-05-19T02:59:14;102537.56;;;11.68;100.00
29935;BME280;19905;53.370;-6.314;2023-05-19T03:01:43;102537.06;;;11.61;100.00
29935;BME280;19905;53.370;-6.314;2023-05-19T03:04:13;102537.28;;;11.57;100.00
29935;BME280;19905;53.370;-6.314;2023-05-19T03:06:44;102542.59;;;11.57;100.00
29935;BME280;19905;53.370;-6.314;2023-05-19T03:09:12;102542.91;;;11.51;100.00
29935;BME280;19905;53.370;-6.314;2023-05-19T03:11:41;102540.63;;;11.43;100.00
29935;BME280;19905;53.370;-6.314;2023-05-19T03:14:10;102547.63;;;11.44;100.00
29935;BME280;19905;53.370;-6.314;2023-05-19T03:16:39;102548.72;;;11.40;100.00
29935;BME280;19905;53.370;-6.314;2023-05-19T03:19:08;102549.88;;;11.34;100.00
29935;BME280;19905;53.370;-6.314;2023-05-19T03:21:37;102540.47;;;11.29;100.00
29935;BME280;19905;53.370;-6.314;2023-05-19T03:24:08;102540.25;;;11.33;100.00
29935;BME280;19905;53.370;-6.314;2023-05-19T03:26:36;102548.50;;;11.27;100.00
29935;BME280;19905;53.370;-6.314;2023-05-19T03:29:05;102548.88;;;11.19;100.00
29935;BME280;19905;53.370;-6.314;2023-05-19T03:31:33;102551.75;;;11.15;100.00
29935;BME280;19905;53.370;-6.314;2023-05-19T03:34:02;102549.19;;;11.13;100.00
29935;BME280;19905;53.370;-6.314;2023-05-19T03:36:31;102551.34;;;11.05;100.00
29935;BME280;19905;53.370;-6.314;2023-05-19T03:39:05;102568.22;;;11.03;100.00
29935;BME280;19905;53.370;-6.314;2023-05-19T03:41:35;102571.78;;;11.02;100.00
29935;BME280;19905;53.370;-6.314;2023-05-19T03:44:04;102569.28;;;10.99;100.00
29935;BME280;19905;53.370;-6.314;2023-05-19T03:46:32;102565.78;;;10.98;100.00
29935;BME280;19905;53.370;-6.314;2023-05-19T03:49:01;102569.44;;;10.96;100.00
29935;BME280;19905;53.370;-6.314;2023-05-19T03:51:30;102575.38;;;11.01;100.00
29935;BME280;19905;53.370;-6.314;2023-05-19T03:53:58;102575.16;;;11.05;100.00
29935;BME280;19905;53.370;-6.314;2023-05-19T03:56:27;102575.88;;;11.09;100.00
29935;BME280;19905;53.370;-6.314;2023-05-19T03:58:57;102576.09;;;11.04;100.00
29935;BME280;19905;53.370;-6.314;2023-05-19T04:01:26;102577.94;;;11.02;100.00
29935;BME280;19905;53.370;-6.314;2023-05-19T04:03:55;102574.53;;;11.00;100.00
29935;BME280;19905;53.370;-6.314;2023-05-19T04:06:24;102579.22;;;10.93;100.00
29935;BME280;19905;53.370;-6.314;2023-05-19T04:08:52;102588.41;;;10.86;100.00
29935;BME280;19905;53.370;-6.314;2023-05-19T04:11:21;102581.38;;;10.85;100.00
29935;BME280;19905;53.370;-6.314;2023-05-19T04:13:49;102585.13;;;10.81;100.00
29935;BME280;19905;53.370;-6.314;2023-05-19T04:16:20;102588.88;;;10.76;100.00
29935;BME280;19905;53.370;-6.314;2023-05-19T04:18:49;102592.25;;;10.79;100.00
29935;BME280;19905;53.370;-6.314;2023-05-19T04:21:18;102595.75;;;10.80;100.00
29935;BME280;19905;53.370;-6.314;2023-05-19T04:23:48;102602.19;;;10.74;100.00
29935;BME280;19905;53.370;-6.314;2023-05-19T04:26:17;102604.81;;;10.74;100.00
29935;BME280;19905;53.370;-6.314;2023-05-19T04:28:48;102620.69;;;10.74;100.00
29935;BME280;19905;53.370;-6.314;2023-05-19T04:31:16;102610.41;;;10.68;100.00
29935;BME280;19905;53.370;-6.314;2023-05-19T04:33:49;102613.19;;;10.65;100.00
29935;BME280;19905;53.370;-6.314;2023-05-19T04:36:19;102613.31;;;10.62;100.00
29935;BME280;19905;53.370;-6.314;2023-05-19T04:38:48;102613.28;;;10.63;100.00
29935;BME280;19905;53.370;-6.314;2023-05-19T04:41:20;102621.13;;;10.65;100.00
29935;BME280;19905;53.370;-6.314;2023-05-19T04:43:49;102629.03;;;10.65;100.00
29935;BME280;19905;53.370;-6.314;2023-05-19T04:46:17;102623.03;;;10.61;100.00
29935;BME280;19905;53.370;-6.314;2023-05-19T04:48:52;102630.97;;;10.61;100.00
29935;BME280;19905;53.370;-6.314;2023-05-19T04:51:21;102630.31;;;10.56;100.00
29935;BME280;19905;53.370;-6.314;2023-05-19T04:53:56;102629.97;;;10.45;100.00
29935;BME280;19905;53.370;-6.314;2023-05-19T04:56:25;102645.84;;;10.43;100.00
29935;BME280;19905;53.370;-6.314;2023-05-19T04:58:55;102646.06;;;10.39;100.00
29935;BME280;19905;53.370;-6.314;2023-05-19T05:01:24;102639.81;;;10.41;100.00
29935;BME280;19905;53.370;-6.314;2023-05-19T05:03:54;102633.91;;;10.35;100.00
29935;BME280;19905;53.370;-6.314;2023-05-19T05:06:25;102635.78;;;10.33;100.00
29935;BME280;19905;53.370;-6.314;2023-05-19T05:08:54;102645.63;;;10.29;100.00
29935;BME280;19905;53.370;-6.314;2023-05-19T05:11:24;102653.75;;;10.25;100.00
29935;BME280;19905;53.370;-6.314;2023-05-19T05:13:53;102650.97;;;10.28;100.00
29935;BME280;19905;53.370;-6.314;2023-05-19T05:16:25;102642.19;;;10.27;100.00
29935;BME280;19905;53.370;-6.314;2023-05-19T05:18:56;102663.19;;;10.30;100.00
29935;BME280;19905;53.370;-6.314;2023-05-19T05:21:26;102661.59;;;10.26;100.00
29935;BME280;19905;53.370;-6.314;2023-05-19T05:23:55;102666.88;;;10.26;100.00
29935;BME280;19905;53.370;-6.314;2023-05-19T05:28:55;102660.50;;;10.32;100.00
29935;BME280;19905;53.370;-6.314;2023-05-19T05:31:23;102651.50;;;10.36;100.00
29935;BME280;19905;53.370;-6.314;2023-05-19T05:33:52;102641.06;;;10.33;100.00
29935;BME280;19905;53.370;-6.314;2023-05-19T05:36:22;102659.47;;;10.34;100.00
29935;BME280;19905;53.370;-6.314;2023-05-19T05:38:51;102657.69;;;10.35;100.00
29935;BME280;19905;53.370;-6.314;2023-05-19T05:41:19;102660.22;;;10.38;100.00
29935;BME280;19905;53.370;-6.314;2023-05-19T05:43:48;102664.09;;;10.29;100.00
29935;BME280;19905;53.370;-6.314;2023-05-19T05:46:17;102657.97;;;10.29;100.00
29935;BME280;19905;53.370;-6.314;2023-05-19T05:48:46;102664.72;;;10.36;100.00
29935;BME280;19905;53.370;-6.314;2023-05-19T05:51:15;102672.44;;;10.40;100.00
29935;BME280;19905;53.370;-6.314;2023-05-19T05:53:51;102662.84;;;10.38;100.00
29935;BME280;19905;53.370;-6.314;2023-05-19T05:56:20;102664.72;;;10.36;100.00
29935;BME280;19905;53.370;-6.314;2023-05-19T05:58:49;102665.41;;;10.39;100.00
29935;BME280;19905;53.370;-6.314;2023-05-19T06:01:18;102667.06;;;10.42;100.00
29935;BME280;19905;53.370;-6.314;2023-05-19T06:03:47;102658.09;;;10.46;100.00
29935;BME280;19905;53.370;-6.314;2023-05-19T06:06:15;102655.38;;;10.48;100.00
29935;BME280;19905;53.370;-6.314;2023-05-19T06:08:46;102646.50;;;10.49;100.00
29935;BME280;19905;53.370;-6.314;2023-05-19T06:11:14;102648.28;;;10.48;100.00
29935;BME280;19905;53.370;-6.314;2023-05-19T06:13:43;102657.03;;;10.50;100.00
29935;BME280;19905;53.370;-6.314;2023-05-19T06:16:11;102657.97;;;10.49;100.00
29935;BME280;19905;53.370;-6.314;2023-05-19T06:18:40;102656.00;;;10.53;100.00
29935;BME280;19905;53.370;-6.314;2023-05-19T06:21:09;102660.09;;;10.60;100.00
29935;BME280;19905;53.370;-6.314;2023-05-19T06:23:39;102668.03;;;10.60;100.00
29935;BME280;19905;53.370;-6.314;2023-05-19T06:26:09;102668.91;;;10.60;100.00
29935;BME280;19905;53.370;-6.314;2023-05-19T06:28:38;102659.81;;;10.66;100.00
29935;BME280;19905;53.370;-6.314;2023-05-19T06:31:06;102649.19;;;10.67;100.00
29935;BME280;19905;53.370;-6.314;2023-05-19T06:33:35;102640.63;;;10.81;100.00
29935;BME280;19905;53.370;-6.314;2023-05-19T06:36:04;102646.25;;;10.74;100.00
29935;BME280;19905;53.370;-6.314;2023-05-19T06:38:34;102640.91;;;10.75;100.00
29935;BME280;19905;53.370;-6.314;2023-05-19T06:41:03;102641.09;;;10.89;100.00
29935;BME280;19905;53.370;-6.314;2023-05-19T06:43:33;102640.91;;;10.94;100.00
29935;BME280;19905;53.370;-6.314;2023-05-19T06:46:02;102643.50;;;10.96;100.00
29935;BME280;19905;53.370;-6.314;2023-05-19T06:48:30;102642.84;;;10.90;100.00
29935;BME280;19905;53.370;-6.314;2023-05-19T06:50:59;102646.69;;;10.83;100.00
29935;BME280;19905;53.370;-6.314;2023-05-19T06:53:27;102651.63;;;10.91;100.00
29935;BME280;19905;53.370;-6.314;2023-05-19T06:55:56;102645.75;;;11.03;100.00
29935;BME280;19905;53.370;-6.314;2023-05-19T06:58:26;102644.19;;;10.99;100.00
29935;BME280;19905;53.370;-6.314;2023-05-19T07:00:56;102653.22;;;10.95;100.00
29935;BME280;19905;53.370;-6.314;2023-05-19T07:03:24;102658.41;;;10.97;100.00
29935;BME280;19905;53.370;-6.314;2023-05-19T07:05:54;102654.53;;;11.04;100.00
29935;BME280;19905;53.370;-6.314;2023-05-19T07:08:22;102663.06;;;11.10;100.00
29935;BME280;19905;53.370;-6.314;2023-05-19T07:10:51;102660.97;;;11.17;100.00
29935;BME280;19905;53.370;-6.314;2023-05-19T07:13:21;102664.09;;;11.25;100.00
29935;BME280;19905;53.370;-6.314;2023-05-19T07:15:52;102661.16;;;11.31;100.00
29935;BME280;19905;53.370;-6.314;2023-05-19T07:18:23;102667.16;;;11.35;100.00
29935;BME280;19905;53.370;-6.314;2023-05-19T07:20:52;102675.91;;;11.37;100.00
29935;BME280;19905;53.370;-6.314;2023-05-19T07:23:20;102679.00;;;11.45;100.00
29935;BME280;19905;53.370;-6.314;2023-05-19T07:25:49;102684.03;;;11.51;100.00
29935;BME280;19905;53.370;-6.314;2023-05-19T07:28:21;102695.47;;;11.52;100.00
29935;BME280;19905;53.370;-6.314;2023-05-19T07:30:49;102700.91;;;11.49;100.00
29935;BME280;19905;53.370;-6.314;2023-05-19T07:33:19;102696.13;;;11.38;100.00
29935;BME280;19905;53.370;-6.314;2023-05-19T07:35:49;102697.38;;;11.48;100.00
29935;BME280;19905;53.370;-6.314;2023-05-19T07:38:18;102697.47;;;11.47;100.00
29935;BME280;19905;53.370;-6.314;2023-05-19T07:40:47;102688.81;;;11.43;100.00
29935;BME280;19905;53.370;-6.314;2023-05-19T07:43:15;102691.56;;;11.41;100.00
29935;BME280;19905;53.370;-6.314;2023-05-19T07:45:44;102691.13;;;11.32;100.00
29935;BME280;19905;53.370;-6.314;2023-05-19T07:48:13;102696.63;;;11.46;100.00
29935;BME280;19905;53.370;-6.314;2023-05-19T07:50:42;102681.63;;;11.64;100.00
29935;BME280;19905;53.370;-6.314;2023-05-19T07:53:12;102681.06;;;11.57;100.00
29935;BME280;19905;53.370;-6.314;2023-05-19T07:55:41;102678.97;;;11.81;100.00
29935;BME280;19905;53.370;-6.314;2023-05-19T07:58:10;102682.47;;;11.83;100.00
29935;BME280;19905;53.370;-6.314;2023-05-19T08:00:40;102678.50;;;11.92;100.00
29935;BME280;19905;53.370;-6.314;2023-05-19T08:03:09;102670.59;;;11.90;100.00
29935;BME280;19905;53.370;-6.314;2023-05-19T08:05:37;102670.09;;;12.01;100.00
29935;BME280;19905;53.370;-6.314;2023-05-19T08:08:06;102666.50;;;12.02;100.00
29935;BME280;19905;53.370;-6.314;2023-05-19T08:10:36;102657.50;;;12.22;100.00
29935;BME280;19905;53.370;-6.314;2023-05-19T08:13:05;102669.19;;;12.35;100.00
29935;BME280;19905;53.370;-6.314;2023-05-19T08:15:33;102669.97;;;12.37;100.00
29935;BME280;19905;53.370;-6.314;2023-05-19T08:18:03;102674.44;;;12.53;100.00
29935;BME280;19905;53.370;-6.314;2023-05-19T08:20:32;102680.75;;;12.50;100.00
29935;BME280;19905;53.370;-6.314;2023-05-19T08:23:01;102680.88;;;12.31;100.00
29935;BME280;19905;53.370;-6.314;2023-05-19T08:25:30;102683.69;;;12.28;100.00
29935;BME280;19905;53.370;-6.314;2023-05-19T08:28:00;102686.78;;;12.36;100.00
29935;BME280;19905;53.370;-6.314;2023-05-19T08:30:29;102689.28;;;12.39;100.00
29935;BME280;19905;53.370;-6.314;2023-05-19T08:32:58;102687.25;;;12.44;100.00
29935;BME280;19905;53.370;-6.314;2023-05-19T08:35:27;102678.16;;;12.66;100.00
29935;BME280;19905;53.370;-6.314;2023-05-19T08:37:56;102676.31;;;12.84;100.00
29935;BME280;19905;53.370;-6.314;2023-05-19T08:40:24;102667.56;;;12.82;100.00
29935;BME280;19905;53.370;-6.314;2023-05-19T08:42:57;102669.53;;;12.78;100.00
29935;BME280;19905;53.370;-6.314;2023-05-19T08:45:28;102674.22;;;12.73;100.00
29935;BME280;19905;53.370;-6.314;2023-05-19T08:47:57;102675.13;;;12.89;100.00
29935;BME280;19905;53.370;-6.314;2023-05-19T08:50:28;102665.69;;;13.00;100.00
29935;BME280;19905;53.370;-6.314;2023-05-19T08:53:02;102657.81;;;13.14;100.00
29935;BME280;19905;53.370;-6.314;2023-05-19T08:55:35;102660.00;;;13.23;100.00
29935;BME280;19905;53.370;-6.314;2023-05-19T08:58:04;102660.16;;;13.20;100.00
29935;BME280;19905;53.370;-6.314;2023-05-19T09:00:34;102660.72;;;13.09;100.00
29935;BME280;19905;53.370;-6.314;2023-05-19T09:03:04;102654.84;;;13.04;100.00
29935;BME280;19905;53.370;-6.314;2023-05-19T09:05:37;102660.72;;;13.09;100.00
29935;BME280;19905;53.370;-6.314;2023-05-19T09:08:07;102646.88;;;13.20;100.00
29935;BME280;19905;53.370;-6.314;2023-05-19T09:10:36;102649.19;;;12.94;100.00
29935;BME280;19905;53.370;-6.314;2023-05-19T09:13:04;102651.84;;;12.94;100.00
29935;BME280;19905;53.370;-6.314;2023-05-19T09:15:36;102656.19;;;12.95;100.00
29935;BME280;19905;53.370;-6.314;2023-05-19T09:18:08;102649.38;;;13.07;100.00
29935;BME280;19905;53.370;-6.314;2023-05-19T09:20:39;102643.53;;;13.16;100.00
29935;BME280;19905;53.370;-6.314;2023-05-19T09:23:11;102639.69;;;13.06;100.00
29935;BME280;19905;53.370;-6.314;2023-05-19T09:25:47;102629.00;;;13.08;100.00
29935;BME280;19905;53.370;-6.314;2023-05-19T09:28:22;102629.59;;;13.13;100.00
29935;BME280;19905;53.370;-6.314;2023-05-19T09:31:00;102630.53;;;13.12;100.00
29935;BME280;19905;53.370;-6.314;2023-05-19T09:33:31;102628.63;;;13.14;100.00
29935;BME280;19905;53.370;-6.314;2023-05-19T09:36:00;102641.16;;;13.28;100.00
29935;BME280;19905;53.370;-6.314;2023-05-19T09:38:29;102638.50;;;13.43;100.00
29935;BME280;19905;53.370;-6.314;2023-05-19T09:40:59;102637.06;;;13.38;100.00
29935;BME280;19905;53.370;-6.314;2023-05-19T09:43:28;102629.47;;;13.46;100.00
29935;BME280;19905;53.370;-6.314;2023-05-19T09:46:02;102627.81;;;13.59;100.00
29935;BME280;19905;53.370;-6.314;2023-05-19T09:48:31;102628.13;;;13.69;100.00
29935;BME280;19905;53.370;-6.314;2023-05-19T09:51:00;102635.19;;;13.70;100.00
29935;BME280;19905;53.370;-6.314;2023-05-19T09:53:29;102639.88;;;13.65;100.00
29935;BME280;19905;53.370;-6.314;2023-05-19T09:56:01;102636.78;;;13.72;100.00
29935;BME280;19905;53.370;-6.314;2023-05-19T09:58:30;102639.69;;;13.84;100.00
29935;BME280;19905;53.370;-6.314;2023-05-19T10:01:02;102636.00;;;14.01;100.00
29935;BME280;19905;53.370;-6.314;2023-05-19T10:03:32;102639.31;;;14.04;100.00
29935;BME280;19905;53.370;-6.314;2023-05-19T10:06:03;102639.31;;;13.90;100.00
29935;BME280;19905;53.370;-6.314;2023-05-19T10:08:33;102631.06;;;13.94;100.00
29935;BME280;19905;53.370;-6.314;2023-05-19T10:11:04;102631.47;;;14.03;100.00
29935;BME280;19905;53.370;-6.314;2023-05-19T10:13:34;102639.44;;;14.03;100.00
29935;BME280;19905;53.370;-6.314;2023-05-19T10:16:07;102635.16;;;14.00;100.00
29935;BME280;19905;53.370;-6.314;2023-05-19T10:18:37;102633.03;;;13.91;100.00
29935;BME280;19905;53.370;-6.314;2023-05-19T10:21:07;102627.88;;;14.18;100.00
29935;BME280;19905;53.370;-6.314;2023-05-19T10:23:36;102630.63;;;14.16;100.00
29935;BME280;19905;53.370;-6.314;2023-05-19T10:26:05;102635.09;;;14.30;100.00
29935;BME280;19905;53.370;-6.314;2023-05-19T10:28:37;102637.63;;;14.17;100.00
29935;BME280;19905;53.370;-6.314;2023-05-19T10:31:11;102641.31;;;14.15;100.00
29935;BME280;19905;53.370;-6.314;2023-05-19T10:33:55;102628.94;;;14.30;100.00
29935;BME280;19905;53.370;-6.314;2023-05-19T10:36:43;102624.94;;;14.51;100.00
29935;BME280;19905;53.370;-6.314;2023-05-19T10:39:16;102619.16;;;14.59;100.00
29935;BME280;19905;53.370;-6.314;2023-05-19T10:41:52;102612.88;;;14.45;100.00
29935;BME280;19905;53.370;-6.314;2023-05-19T10:44:33;102608.13;;;14.65;100.00
29935;BME280;19905;53.370;-6.314;2023-05-19T10:47:08;102612.59;;;14.64;100.00
29935;BME280;19905;53.370;-6.314;2023-05-19T10:49:38;102607.56;;;14.60;100.00
29935;BME280;19905;53.370;-6.314;2023-05-19T10:52:18;102614.81;;;14.58;100.00
29935;BME280;19905;53.370;-6.314;2023-05-19T10:54:49;102614.41;;;14.64;100.00
29935;BME280;19905;53.370;-6.314;2023-05-19T10:57:25;102613.66;;;14.62;100.00
29935;BME280;19905;53.370;-6.314;2023-05-19T10:59:54;102616.72;;;14.97;100.00
29935;BME280;19905;53.370;-6.314;2023-05-19T11:02:46;102608.91;;;15.08;100.00
29935;BME280;19905;53.370;-6.314;2023-05-19T11:05:28;102614.84;;;15.39;100.00
29935;BME280;19905;53.370;-6.314;2023-05-19T11:07:59;102612.50;;;15.34;100.00
29935;BME280;19905;53.370;-6.314;2023-05-19T11:10:29;102607.94;;;15.36;100.00
29935;BME280;19905;53.370;-6.314;2023-05-19T11:12:58;102615.97;;;15.22;100.00
29935;BME280;19905;53.370;-6.314;2023-05-19T11:15:27;102610.09;;;15.17;100.00
29935;BME280;19905;53.370;-6.314;2023-05-19T11:18:00;102608.03;;;15.08;100.00
29935;BME280;19905;53.370;-6.314;2023-05-19T11:20:29;102607.53;;;15.15;100.00
29935;BME280;19905;53.370;-6.314;2023-05-19T11:23:04;102615.06;;;15.36;100.00
29935;BME280;19905;53.370;-6.314;2023-05-19T11:25:41;102611.94;;;15.29;100.00
29935;BME280;19905;53.370;-6.314;2023-05-19T11:28:10;102614.53;;;15.43;100.00
29935;BME280;19905;53.370;-6.314;2023-05-19T11:30:44;102611.78;;;15.45;100.00
29935;BME280;19905;53.370;-6.314;2023-05-19T11:33:14;102610.66;;;15.35;100.00
29935;BME280;19905;53.370;-6.314;2023-05-19T11:35:45;102611.09;;;15.29;100.00
29935;BME280;19905;53.370;-6.314;2023-05-19T11:38:17;102616.91;;;15.21;100.00
29935;BME280;19905;53.370;-6.314;2023-05-19T11:40:47;102615.81;;;15.11;100.00
29935;BME280;19905;53.370;-6.314;2023-05-19T11:43:16;102618.28;;;15.14;100.00
29935;BME280;19905;53.370;-6.314;2023-05-19T11:45:46;102612.78;;;15.30;100.00
29935;BME280;19905;53.370;-6.314;2023-05-19T11:48:16;102614.81;;;15.26;100.00
29935;BME280;19905;53.370;-6.314;2023-05-19T11:50:48;102610.84;;;15.46;100.00
29935;BME280;19905;53.370;-6.314;2023-05-19T11:53:17;102603.00;;;15.30;100.00
29935;BME280;19905;53.370;-6.314;2023-05-19T11:55:47;102604.63;;;15.33;100.00
29935;BME280;19905;53.370;-6.314;2023-05-19T11:58:17;102606.16;;;15.49;100.00
29935;BME280;19905;53.370;-6.314;2023-05-19T12:00:52;102605.03;;;15.39;100.00
29935;BME280;19905;53.370;-6.314;2023-05-19T12:03:23;102599.44;;;15.57;100.00
29935;BME280;19905;53.370;-6.314;2023-05-19T12:05:55;102596.25;;;15.91;100.00
29935;BME280;19905;53.370;-6.314;2023-05-19T12:08:24;102586.63;;;16.01;100.00
29935;BME280;19905;53.370;-6.314;2023-05-19T12:10:53;102579.16;;;16.19;100.00
29935;BME280;19905;53.370;-6.314;2023-05-19T12:13:22;102583.31;;;16.36;100.00
29935;BME280;19905;53.370;-6.314;2023-05-19T12:15:51;102581.69;;;16.46;100.00
29935;BME280;19905;53.370;-6.314;2023-05-19T12:18:20;102581.38;;;16.51;100.00
29935;BME280;19905;53.370;-6.314;2023-05-19T12:20:50;102584.06;;;16.38;100.00
29935;BME280;19905;53.370;-6.314;2023-05-19T12:23:19;102580.19;;;16.55;100.00
29935;BME280;19905;53.370;-6.314;2023-05-19T12:25:48;102571.84;;;16.72;100.00
29935;BME280;19905;53.370;-6.314;2023-05-19T12:28:18;102571.84;;;16.72;100.00
29935;BME280;19905;53.370;-6.314;2023-05-19T12:30:48;102575.75;;;16.80;100.00
29935;BME280;19905;53.370;-6.314;2023-05-19T12:33:18;102580.75;;;17.08;100.00
29935;BME280;19905;53.370;-6.314;2023-05-19T12:35:50;102581.41;;;16.88;100.00
29935;BME280;19905;53.370;-6.314;2023-05-19T12:38:18;102583.56;;;16.70;100.00
29935;BME280;19905;53.370;-6.314;2023-05-19T12:40:49;102586.59;;;17.13;100.00
29935;BME280;19905;53.370;-6.314;2023-05-19T12:43:21;102574.09;;;17.38;100.00
29935;BME280;19905;53.370;-6.314;2023-05-19T12:45:49;102588.31;;;17.38;100.00
29935;BME280;19905;53.370;-6.314;2023-05-19T12:48:21;102586.00;;;17.45;100.00
29935;BME280;19905;53.370;-6.314;2023-05-19T12:50:52;102578.63;;;17.84;100.00
29935;BME280;19905;53.370;-6.314;2023-05-19T12:53:21;102577.91;;;17.93;100.00